sensor_id;sensor_type;location;lat;lon;timestamp;P1;durP1;ratioP1;P2;durP2;ratioP2
44197;SDS011;30157;55.512;37.764;2023-05-19T00:01:10;10.55;;;6.40;;
44197;SDS011;30157;55.512;37.764;2023-05-19T00:03:50;9.45;;;6.60;;
44197;SDS011;30157;55.512;37.764;2023-05-19T00:06:22;13.75;;;7.40;;
44197;SDS011;30157;55.512;37.764;2023-05-19T00:09:12;11.20;;;6.82;;
44197;SDS011;30157;55.512;37.764;2023-05-19T00:11:38;10.82;;;6.30;;
44197;SDS011;30157;55.512;37.764;2023-05-19T00:14:05;10.27;;;6.60;;
44197;SDS011;30157;55.512;37.764;2023-05-19T00:16:33;10.27;;;6.25;;
44197;SDS011;30157;55.512;37.764;2023-05-19T00:19:01;12.30;;;6.57;;
44197;SDS011;30157;55.512;37.764;2023-05-19T00:21:28;8.35;;;5.78;;
44197;SDS011;30157;55.512;37.764;2023-05-19T00:23:55;11.85;;;6.13;;
44197;SDS011;30157;55.512;37.764;2023-05-19T00:26:21;10.43;;;6.90;;
44197;SDS011;30157;55.512;37.764;2023-05-19T00:28:58;11.82;;;6.65;;
44197;SDS011;30157;55.512;37.764;2023-05-19T00:31:24;11.35;;;6.72;;
44197;SDS011;30157;55.512;37.764;2023-05-19T00:33:49;11.60;;;7.07;;
44197;SDS011;30157;55.512;37.764;2023-05-19T00:36:16;10.43;;;6.53;;
44197;SDS011;30157;55.512;37.764;2023-05-19T00:38:42;12.80;;;7.32;;
44197;SDS011;30157;55.512;37.764;2023-05-19T00:41:08;11.55;;;7.18;;
44197;SDS011;30157;55.512;37.764;2023-05-19T00:43:34;9.18;;;7.38;;
44197;SDS011;30157;55.512;37.764;2023-05-19T00:45:59;10.65;;;7.38;;
44197;SDS011;30157;55.512;37.764;2023-05-19T00:48:26;11.75;;;7.03;;
44197;SDS011;30157;55.512;37.764;2023-05-19T00:50:52;10.70;;;6.60;;
44197;SDS011;30157;55.512;37.764;2023-05-19T00:53:20;9.65;;;6.63;;
44197;SDS011;30157;55.512;37.764;2023-05-19T00:55:47;8.93;;;6.68;;
44197;SDS011;30157;55.512;37.764;2023-05-19T00:58:15;9.85;;;6.45;;
44197;SDS011;30157;55.512;37.764;2023-05-19T01:00:42;8.20;;;6.78;;
44197;SDS011;30157;55.512;37.764;2023-05-19T01:03:08;9.52;;;6.97;;
44197;SDS011;30157;55.512;37.764;2023-05-19T01:05:39;10.02;;;7.38;;
44197;SDS011;30157;55.512;37.764;2023-05-19T01:08:33;12.25;;;7.90;;
44197;SDS011;30157;55.512;37.764;2023-05-19T01:11:01;12.40;;;8.32;;
44197;SDS011;30157;55.512;37.764;2023-05-19T01:13:28;13.90;;;9.13;;
44197;SDS011;30157;55.512;37.764;2023-05-19T01:18:40;8.25;;;5.80;;
44197;SDS011;30157;55.512;37.764;2023-05-19T01:29:28;9.48;;;6.20;;
44197;SDS011;30157;55.512;37.764;2023-05-19T01:31:59;7.20;;;4.75;;
44197;SDS011;30157;55.512;37.764;2023-05-19T01:34:28;8.27;;;5.20;;
44197;SDS011;30157;55.512;37.764;2023-05-19T01:36:55;8.10;;;4.25;;
44197;SDS011;30157;55.512;37.764;2023-05-19T01:39:24;6.28;;;4.70;;
44197;SDS011;30157;55.512;37.764;2023-05-19T01:41:50;5.38;;;3.95;;
44197;SDS011;30157;55.512;37.764;2023-05-19T01:44:17;4.85;;;3.80;;
44197;SDS011;30157;55.512;37.764;2023-05-19T01:46:44;6.95;;;4.47;;
44197;SDS011;30157;55.512;37.764;2023-05-19T01:49:11;6.60;;;4.00;;
44197;SDS011;30157;55.512;37.764;2023-05-19T01:51:37;6.63;;;4.20;;
44197;SDS011;30157;55.512;37.764;2023-05-19T01:54:04;4.63;;;3.15;;
44197;SDS011;30157;55.512;37.764;2023-05-19T01:56:36;5.47;;;3.05;;
44197;SDS011;30157;55.512;37.764;2023-05-19T01:59:17;4.07;;;3.08;;
44197;SDS011;30157;55.512;37.764;2023-05-19T02:01:51;2.40;;;2.17;;
44197;SDS011;30157;55.512;37.764;2023-05-19T02:09:38;2.22;;;1.60;;
44197;SDS011;30157;55.512;37.764;2023-05-19T02:12:33;8.18;;;1.92;;
44197;SDS011;30157;55.512;37.764;2023-05-19T02:17:36;3.13;;;1.95;;
44197;SDS011;30157;55.512;37.764;2023-05-19T02:20:07;4.85;;;2.58;;
44197;SDS011;30157;55.512;37.764;2023-05-19T02:22:36;5.95;;;2.25;;
44197;SDS011;30157;55.512;37.764;2023-05-19T02:25:02;3.45;;;1.95;;
44197;SDS011;30157;55.512;37.764;2023-05-19T02:27:32;2.50;;;1.75;;
44197;SDS011;30157;55.512;37.764;2023-05-19T02:30:04;8.50;;;2.50;;
44197;SDS011;30157;55.512;37.764;2023-05-19T02:32:32;2.13;;;1.25;;
44197;SDS011;30157;55.512;37.764;2023-05-19T02:34:58;2.58;;;1.70;;
44197;SDS011;30157;55.512;37.764;2023-05-19T02:37:24;2.08;;;1.25;;
44197;SDS011;30157;55.512;37.764;2023-05-19T02:39:52;2.17;;;1.48;;
44197;SDS011;30157;55.512;37.764;2023-05-19T02:42:19;2.42;;;1.50;;
44197;SDS011;30157;55.512;37.764;2023-05-19T02:44:47;2.30;;;1.50;;
44197;SDS011;30157;55.512;37.764;2023-05-19T02:47:13;1.95;;;1.60;;
44197;SDS011;30157;55.512;37.764;2023-05-19T02:49:39;4.60;;;1.90;;
44197;SDS011;30157;55.512;37.764;2023-05-19T02:52:05;2.83;;;1.90;;
44197;SDS011;30157;55.512;37.764;2023-05-19T02:54:32;3.33;;;2.20;;
44197;SDS011;30157;55.512;37.764;2023-05-19T02:56:58;4.15;;;1.85;;
44197;SDS011;30157;55.512;37.764;2023-05-19T02:59:24;2.22;;;1.50;;
44197;SDS011;30157;55.512;37.764;2023-05-19T03:01:51;8.80;;;2.10;;
44197;SDS011;30157;55.512;37.764;2023-05-19T03:04:19;3.20;;;2.10;;
44197;SDS011;30157;55.512;37.764;2023-05-19T03:06:45;3.78;;;2.30;;
44197;SDS011;30157;55.512;37.764;2023-05-19T03:09:14;4.10;;;2.38;;
44197;SDS011;30157;55.512;37.764;2023-05-19T03:11:39;6.03;;;2.88;;
44197;SDS011;30157;55.512;37.764;2023-05-19T03:14:05;5.90;;;3.03;;
44197;SDS011;30157;55.512;37.764;2023-05-19T03:16:33;3.97;;;2.90;;
44197;SDS011;30157;55.512;37.764;2023-05-19T03:18:59;8.50;;;3.30;;
44197;SDS011;30157;55.512;37.764;2023-05-19T03:21:25;4.97;;;3.08;;
44197;SDS011;30157;55.512;37.764;2023-05-19T03:23:51;5.43;;;2.90;;
44197;SDS011;30157;55.512;37.764;2023-05-19T03:26:17;4.68;;;3.10;;
44197;SDS011;30157;55.512;37.764;2023-05-19T03:28:43;6.43;;;3.38;;
44197;SDS011;30157;55.512;37.764;2023-05-19T03:31:09;6.55;;;2.92;;
44197;SDS011;30157;55.512;37.764;2023-05-19T03:33:37;9.45;;;3.58;;
44197;SDS011;30157;55.512;37.764;2023-05-19T03:36:03;8.98;;;4.53;;
44197;SDS011;30157;55.512;37.764;2023-05-19T03:38:34;10.70;;;4.38;;
44197;SDS011;30157;55.512;37.764;2023-05-19T03:41:00;7.45;;;3.90;;
44197;SDS011;30157;55.512;37.764;2023-05-19T03:43:25;9.77;;;3.60;;
44197;SDS011;30157;55.512;37.764;2023-05-19T03:45:58;14.25;;;4.25;;
44197;SDS011;30157;55.512;37.764;2023-05-19T03:48:56;9.10;;;4.53;;
44197;SDS011;30157;55.512;37.764;2023-05-19T03:51:25;8.52;;;4.07;;
44197;SDS011;30157;55.512;37.764;2023-05-19T03:53:55;8.30;;;4.18;;
44197;SDS011;30157;55.512;37.764;2023-05-19T03:56:21;7.00;;;3.38;;
44197;SDS011;30157;55.512;37.764;2023-05-19T03:58:49;9.90;;;3.50;;
44197;SDS011;30157;55.512;37.764;2023-05-19T04:01:15;5.05;;;2.70;;
44197;SDS011;30157;55.512;37.764;2023-05-19T04:03:40;6.13;;;2.80;;
44197;SDS011;30157;55.512;37.764;2023-05-19T04:06:07;5.07;;;2.47;;
44197;SDS011;30157;55.512;37.764;2023-05-19T04:08:33;4.00;;;2.50;;
44197;SDS011;30157;55.512;37.764;2023-05-19T04:10:59;5.68;;;2.75;;
44197;SDS011;30157;55.512;37.764;2023-05-19T04:13:24;6.13;;;2.80;;
44197;SDS011;30157;55.512;37.764;2023-05-19T04:15:50;7.38;;;2.92;;
44197;SDS011;30157;55.512;37.764;2023-05-19T04:18:16;6.15;;;3.03;;
44197;SDS011;30157;55.512;37.764;2023-05-19T04:20:42;6.32;;;2.70;;
44197;SDS011;30157;55.512;37.764;2023-05-19T04:23:07;6.10;;;2.55;;
44197;SDS011;30157;55.512;37.764;2023-05-19T04:25:33;7.60;;;2.70;;
44197;SDS011;30157;55.512;37.764;2023-05-19T04:28:00;12.63;;;3.92;;
44197;SDS011;30157;55.512;37.764;2023-05-19T04:30:28;12.82;;;3.53;;
44197;SDS011;30157;55.512;37.764;2023-05-19T04:32:54;9.00;;;3.05;;
44197;SDS011;30157;55.512;37.764;2023-05-19T04:35:22;7.63;;;2.65;;
44197;SDS011;30157;55.512;37.764;2023-05-19T04:37:49;4.95;;;3.08;;
44197;SDS011;30157;55.512;37.764;2023-05-19T04:40:20;6.68;;;3.13;;
44197;SDS011;30157;55.512;37.764;2023-05-19T04:42:49;7.72;;;4.00;;
44197;SDS011;30157;55.512;37.764;2023-05-19T04:45:17;6.78;;;3.33;;
44197;SDS011;30157;55.512;37.764;2023-05-19T04:47:46;3.80;;;2.65;;
44197;SDS011;30157;55.512;37.764;2023-05-19T04:50:12;6.05;;;3.20;;
44197;SDS011;30157;55.512;37.764;2023-05-19T04:52:39;6.25;;;3.38;;
44197;SDS011;30157;55.512;37.764;2023-05-19T04:55:07;5.30;;;3.10;;
44197;SDS011;30157;55.512;37.764;2023-05-19T04:57:35;5.88;;;3.20;;
44197;SDS011;30157;55.512;37.764;2023-05-19T05:00:02;6.07;;;3.78;;
44197;SDS011;30157;55.512;37.764;2023-05-19T05:02:37;6.78;;;3.58;;
44197;SDS011;30157;55.512;37.764;2023-05-19T05:05:03;7.03;;;3.80;;
44197;SDS011;30157;55.512;37.764;2023-05-19T05:07:30;8.65;;;3.88;;
44197;SDS011;30157;55.512;37.764;2023-05-19T05:09:56;5.38;;;3.08;;
44197;SDS011;30157;55.512;37.764;2023-05-19T05:12:22;6.47;;;3.22;;
44197;SDS011;30157;55.512;37.764;2023-05-19T05:14:48;8.27;;;3.72;;
44197;SDS011;30157;55.512;37.764;2023-05-19T05:17:14;5.75;;;3.35;;
44197;SDS011;30157;55.512;37.764;2023-05-19T05:19:41;5.53;;;4.13;;
44197;SDS011;30157;55.512;37.764;2023-05-19T05:22:07;5.40;;;3.47;;
44197;SDS011;30157;55.512;37.764;2023-05-19T05:24:37;6.63;;;3.60;;
44197;SDS011;30157;55.512;37.764;2023-05-19T05:27:03;7.05;;;3.80;;
44197;SDS011;30157;55.512;37.764;2023-05-19T05:29:31;8.05;;;4.63;;
44197;SDS011;30157;55.512;37.764;2023-05-19T05:31:57;7.53;;;4.47;;
44197;SDS011;30157;55.512;37.764;2023-05-19T05:34:23;8.10;;;5.13;;
44197;SDS011;30157;55.512;37.764;2023-05-19T05:36:49;11.10;;;5.47;;
44197;SDS011;30157;55.512;37.764;2023-05-19T05:39:16;7.20;;;4.60;;
44197;SDS011;30157;55.512;37.764;2023-05-19T05:41:43;9.63;;;5.25;;
44197;SDS011;30157;55.512;37.764;2023-05-19T05:44:10;7.90;;;4.50;;
44197;SDS011;30157;55.512;37.764;2023-05-19T05:46:39;9.88;;;4.70;;
44197;SDS011;30157;55.512;37.764;2023-05-19T05:49:05;13.25;;;5.30;;
44197;SDS011;30157;55.512;37.764;2023-05-19T05:51:31;10.82;;;5.80;;
44197;SDS011;30157;55.512;37.764;2023-05-19T05:53:58;7.18;;;4.40;;
44197;SDS011;30157;55.512;37.764;2023-05-19T05:56:33;6.43;;;4.28;;
44197;SDS011;30157;55.512;37.764;2023-05-19T05:59:02;8.93;;;5.18;;
44197;SDS011;30157;55.512;37.764;2023-05-19T06:01:28;8.85;;;5.10;;
44197;SDS011;30157;55.512;37.764;2023-05-19T06:03:57;8.52;;;4.60;;
44197;SDS011;30157;55.512;37.764;2023-05-19T06:06:23;7.68;;;4.32;;
44197;SDS011;30157;55.512;37.764;2023-05-19T06:08:51;6.90;;;4.57;;
44197;SDS011;30157;55.512;37.764;2023-05-19T06:11:17;8.57;;;4.53;;
44197;SDS011;30157;55.512;37.764;2023-05-19T06:13:44;9.88;;;4.75;;
44197;SDS011;30157;55.512;37.764;2023-05-19T06:16:17;10.32;;;5.55;;
44197;SDS011;30157;55.512;37.764;2023-05-19T06:18:45;7.78;;;5.25;;
44197;SDS011;30157;55.512;37.764;2023-05-19T06:21:11;8.55;;;5.35;;
44197;SDS011;30157;55.512;37.764;2023-05-19T06:23:41;7.88;;;5.47;;
44197;SDS011;30157;55.512;37.764;2023-05-19T06:26:09;8.45;;;5.15;;
44197;SDS011;30157;55.512;37.764;2023-05-19T06:28:36;8.55;;;5.05;;
44197;SDS011;30157;55.512;37.764;2023-05-19T06:31:02;8.10;;;4.78;;
44197;SDS011;30157;55.512;37.764;2023-05-19T06:33:51;10.02;;;5.07;;
44197;SDS011;30157;55.512;37.764;2023-05-19T06:36:18;12.88;;;7.70;;
44197;SDS011;30157;55.512;37.764;2023-05-19T06:38:45;10.25;;;6.22;;
44197;SDS011;30157;55.512;37.764;2023-05-19T06:41:11;9.60;;;5.90;;
44197;SDS011;30157;55.512;37.764;2023-05-19T06:43:37;8.43;;;5.43;;
44197;SDS011;30157;55.512;37.764;2023-05-19T06:46:03;9.80;;;6.63;;
44197;SDS011;30157;55.512;37.764;2023-05-19T06:48:32;10.00;;;5.82;;
44197;SDS011;30157;55.512;37.764;2023-05-19T06:50:58;8.52;;;5.70;;
44197;SDS011;30157;55.512;37.764;2023-05-19T06:53:25;8.10;;;5.20;;
44197;SDS011;30157;55.512;37.764;2023-05-19T06:55:52;9.02;;;5.40;;
44197;SDS011;30157;55.512;37.764;2023-05-19T06:58:21;8.27;;;5.40;;
44197;SDS011;30157;55.512;37.764;2023-05-19T07:00:47;6.88;;;5.38;;
44197;SDS011;30157;55.512;37.764;2023-05-19T07:03:15;7.70;;;6.13;;
44197;SDS011;30157;55.512;37.764;2023-05-19T07:05:41;8.13;;;5.72;;
44197;SDS011;30157;55.512;37.764;2023-05-19T07:08:07;7.38;;;6.03;;
44197;SDS011;30157;55.512;37.764;2023-05-19T07:10:34;8.68;;;6.30;;
44197;SDS011;30157;55.512;37.764;2023-05-19T07:13:01;8.75;;;6.30;;
44197;SDS011;30157;55.512;37.764;2023-05-19T07:15:30;7.93;;;5.65;;
44197;SDS011;30157;55.512;37.764;2023-05-19T07:17:57;7.90;;;5.65;;
44197;SDS011;30157;55.512;37.764;2023-05-19T07:20:24;8.32;;;5.90;;
44197;SDS011;30157;55.512;37.764;2023-05-19T07:22:49;14.05;;;8.07;;
44197;SDS011;30157;55.512;37.764;2023-05-19T07:25:15;12.98;;;8.38;;
44197;SDS011;30157;55.512;37.764;2023-05-19T07:27:43;9.35;;;6.35;;
44197;SDS011;30157;55.512;37.764;2023-05-19T07:30:10;10.13;;;6.30;;
44197;SDS011;30157;55.512;37.764;2023-05-19T07:32:36;10.00;;;7.43;;
44197;SDS011;30157;55.512;37.764;2023-05-19T07:35:01;8.88;;;6.75;;
44197;SDS011;30157;55.512;37.764;2023-05-19T07:37:30;10.40;;;6.55;;
44197;SDS011;30157;55.512;37.764;2023-05-19T07:39:56;9.18;;;7.05;;
44197;SDS011;30157;55.512;37.764;2023-05-19T07:42:22;9.38;;;6.50;;
44197;SDS011;30157;55.512;37.764;2023-05-19T07:44:48;9.25;;;6.82;;
44197;SDS011;30157;55.512;37.764;2023-05-19T07:47:13;8.27;;;6.40;;
44197;SDS011;30157;55.512;37.764;2023-05-19T07:49:39;10.65;;;6.43;;
44197;SDS011;30157;55.512;37.764;2023-05-19T07:52:05;8.75;;;6.65;;
44197;SDS011;30157;55.512;37.764;2023-05-19T07:54:31;11.55;;;8.55;;
44197;SDS011;30157;55.512;37.764;2023-05-19T07:56:56;11.15;;;7.57;;
44197;SDS011;30157;55.512;37.764;2023-05-19T07:59:22;10.15;;;7.50;;
44197;SDS011;30157;55.512;37.764;2023-05-19T08:01:48;12.20;;;7.45;;
44197;SDS011;30157;55.512;37.764;2023-05-19T08:04:14;13.70;;;7.00;;
44197;SDS011;30157;55.512;37.764;2023-05-19T08:06:40;9.70;;;7.05;;
44197;SDS011;30157;55.512;37.764;2023-05-19T08:09:06;11.80;;;8.07;;
44197;SDS011;30157;55.512;37.764;2023-05-19T08:11:32;10.57;;;7.47;;
44197;SDS011;30157;55.512;37.764;2023-05-19T08:13:58;10.50;;;8.05;;
44197;SDS011;30157;55.512;37.764;2023-05-19T08:16:24;11.32;;;7.65;;
44197;SDS011;30157;55.512;37.764;2023-05-19T08:18:50;10.32;;;7.28;;
44197;SDS011;30157;55.512;37.764;2023-05-19T08:21:15;9.27;;;6.72;;
44197;SDS011;30157;55.512;37.764;2023-05-19T08:23:41;11.18;;;6.93;;
44197;SDS011;30157;55.512;37.764;2023-05-19T08:26:07;10.82;;;7.00;;
44197;SDS011;30157;55.512;37.764;2023-05-19T08:28:33;11.85;;;7.90;;
44197;SDS011;30157;55.512;37.764;2023-05-19T08:30:59;10.95;;;7.93;;
44197;SDS011;30157;55.512;37.764;2023-05-19T08:33:25;13.27;;;8.52;;
44197;SDS011;30157;55.512;37.764;2023-05-19T08:35:51;12.75;;;9.07;;
44197;SDS011;30157;55.512;37.764;2023-05-19T08:38:16;14.68;;;8.50;;
44197;SDS011;30157;55.512;37.764;2023-05-19T08:40:42;12.82;;;8.07;;
44197;SDS011;30157;55.512;37.764;2023-05-19T08:43:11;9.52;;;7.93;;
44197;SDS011;30157;55.512;37.764;2023-05-19T08:45:38;16.20;;;10.80;;
44197;SDS011;30157;55.512;37.764;2023-05-19T08:48:08;13.20;;;8.30;;
44197;SDS011;30157;55.512;37.764;2023-05-19T08:50:34;15.07;;;9.65;;
44197;SDS011;30157;55.512;37.764;2023-05-19T08:53:07;13.73;;;9.43;;
44197;SDS011;30157;55.512;37.764;2023-05-19T08:55:43;14.48;;;9.45;;
44197;SDS011;30157;55.512;37.764;2023-05-19T08:58:17;14.10;;;9.48;;
44197;SDS011;30157;55.512;37.764;2023-05-19T09:00:47;13.25;;;7.85;;
44197;SDS011;30157;55.512;37.764;2023-05-19T09:03:13;13.13;;;8.48;;
44197;SDS011;30157;55.512;37.764;2023-05-19T09:05:42;12.82;;;9.98;;
44197;SDS011;30157;55.512;37.764;2023-05-19T09:08:08;11.90;;;7.25;;
44197;SDS011;30157;55.512;37.764;2023-05-19T09:10:34;9.55;;;7.22;;
44197;SDS011;30157;55.512;37.764;2023-05-19T09:13:00;10.27;;;8.20;;
44197;SDS011;30157;55.512;37.764;2023-05-19T09:15:26;11.35;;;8.20;;
44197;SDS011;30157;55.512;37.764;2023-05-19T09:18:05;12.70;;;9.05;;
44197;SDS011;30157;55.512;37.764;2023-05-19T09:20:39;11.73;;;7.97;;
44197;SDS011;30157;55.512;37.764;2023-05-19T09:23:06;9.57;;;6.93;;
44197;SDS011;30157;55.512;37.764;2023-05-19T09:25:50;10.65;;;7.72;;
44197;SDS011;30157;55.512;37.764;2023-05-19T09:31:10;11.65;;;7.00;;
44197;SDS011;30157;55.512;37.764;2023-05-19T09:33:36;8.38;;;6.03;;
44197;SDS011;30157;55.512;37.764;2023-05-19T09:36:03;7.45;;;5.35;;
44197;SDS011;30157;55.512;37.764;2023-05-19T09:38:30;10.90;;;6.97;;
44197;SDS011;30157;55.512;37.764;2023-05-19T09:40:57;13.40;;;6.70;;
44197;SDS011;30157;55.512;37.764;2023-05-19T09:43:28;8.45;;;6.35;;
44197;SDS011;30157;55.512;37.764;2023-05-19T09:46:13;10.57;;;6.82;;
44197;SDS011;30157;55.512;37.764;2023-05-19T09:48:40;7.17;;;5.13;;
44197;SDS011;30157;55.512;37.764;2023-05-19T09:51:06;7.20;;;5.68;;
44197;SDS011;30157;55.512;37.764;2023-05-19T09:53:34;8.18;;;4.97;;
44197;SDS011;30157;55.512;37.764;2023-05-19T09:56:01;9.90;;;6.07;;
44197;SDS011;30157;55.512;37.764;2023-05-19T09:58:31;9.23;;;5.50;;
44197;SDS011;30157;55.512;37.764;2023-05-19T10:00:59;7.43;;;4.47;;
44197;SDS011;30157;55.512;37.764;2023-05-19T10:03:25;9.50;;;5.32;;
44197;SDS011;30157;55.512;37.764;2023-05-19T10:05:52;5.75;;;4.53;;
44197;SDS011;30157;55.512;37.764;2023-05-19T10:08:19;6.85;;;4.97;;
44197;SDS011;30157;55.512;37.764;2023-05-19T10:10:45;7.78;;;4.40;;
44197;SDS011;30157;55.512;37.764;2023-05-19T10:13:12;13.90;;;8.15;;
44197;SDS011;30157;55.512;37.764;2023-05-19T10:15:42;10.18;;;4.93;;
44197;SDS011;30157;55.512;37.764;2023-05-19T10:18:08;11.60;;;5.57;;
44197;SDS011;30157;55.512;37.764;2023-05-19T10:20:35;6.38;;;4.45;;
44197;SDS011;30157;55.512;37.764;2023-05-19T10:23:01;9.40;;;4.18;;
44197;SDS011;30157;55.512;37.764;2023-05-19T10:25:29;6.40;;;3.40;;
44197;SDS011;30157;55.512;37.764;2023-05-19T10:28:08;5.97;;;4.40;;
44197;SDS011;30157;55.512;37.764;2023-05-19T10:30:41;10.77;;;5.63;;
44197;SDS011;30157;55.512;37.764;2023-05-19T10:33:14;6.78;;;4.07;;
44197;SDS011;30157;55.512;37.764;2023-05-19T10:38:47;4.95;;;3.63;;
44197;SDS011;30157;55.512;37.764;2023-05-19T10:44:15;5.50;;;3.60;;
44197;SDS011;30157;55.512;37.764;2023-05-19T10:46:42;5.85;;;3.65;;
44197;SDS011;30157;55.512;37.764;2023-05-19T10:49:08;7.82;;;3.65;;
44197;SDS011;30157;55.512;37.764;2023-05-19T10:51:34;8.35;;;3.17;;
44197;SDS011;30157;55.512;37.764;2023-05-19T10:54:02;8.02;;;2.65;;
44197;SDS011;30157;55.512;37.764;2023-05-19T10:56:33;5.57;;;2.40;;
44197;SDS011;30157;55.512;37.764;2023-05-19T10:59:06;8.23;;;2.90;;
44197;SDS011;30157;55.512;37.764;2023-05-19T11:01:35;9.35;;;2.55;;
44197;SDS011;30157;55.512;37.764;2023-05-19T11:04:11;7.13;;;2.83;;
44197;SDS011;30157;55.512;37.764;2023-05-19T11:06:38;5.55;;;2.70;;
44197;SDS011;30157;55.512;37.764;2023-05-19T11:09:12;4.63;;;2.80;;
44197;SDS011;30157;55.512;37.764;2023-05-19T11:14:11;5.30;;;2.42;;
44197;SDS011;30157;55.512;37.764;2023-05-19T11:16:39;4.50;;;1.92;;
44197;SDS011;30157;55.512;37.764;2023-05-19T11:19:16;4.72;;;2.63;;
44197;SDS011;30157;55.512;37.764;2023-05-19T11:22:08;5.43;;;2.33;;
44197;SDS011;30157;55.512;37.764;2023-05-19T11:24:36;4.63;;;2.50;;
44197;SDS011;30157;55.512;37.764;2023-05-19T11:30:16;9.27;;;3.17;;
44197;SDS011;30157;55.512;37.764;2023-05-19T11:32:46;4.60;;;2.50;;
44197;SDS011;30157;55.512;37.764;2023-05-19T11:35:12;6.60;;;2.80;;
44197;SDS011;30157;55.512;37.764;2023-05-19T11:37:38;5.13;;;2.60;;
44197;SDS011;30157;55.512;37.764;2023-05-19T11:40:05;3.15;;;1.90;;
44197;SDS011;30157;55.512;37.764;2023-05-19T11:42:33;5.50;;;2.45;;
44197;SDS011;30157;55.512;37.764;2023-05-19T11:45:02;5.70;;;2.30;;
44197;SDS011;30157;55.512;37.764;2023-05-19T11:47:33;4.30;;;2.15;;
44197;SDS011;30157;55.512;37.764;2023-05-19T11:50:00;7.25;;;2.65;;
44197;SDS011;30157;55.512;37.764;2023-05-19T11:52:26;5.65;;;2.67;;
44197;SDS011;30157;55.512;37.764;2023-05-19T11:54:53;5.40;;;2.55;;
44197;SDS011;30157;55.512;37.764;2023-05-19T11:57:19;8.00;;;2.78;;
44197;SDS011;30157;55.512;37.764;2023-05-19T11:59:45;3.63;;;2.17;;
44197;SDS011;30157;55.512;37.764;2023-05-19T12:02:15;5.00;;;2.00;;
44197;SDS011;30157;55.512;37.764;2023-05-19T12:04:44;4.03;;;2.22;;
44197;SDS011;30157;55.512;37.764;2023-05-19T12:07:11;4.78;;;2.13;;
44197;SDS011;30157;55.512;37.764;2023-05-19T12:09:38;3.80;;;1.75;;
44197;SDS011;30157;55.512;37.764;2023-05-19T12:12:04;3.53;;;2.05;;
44197;SDS011;30157;55.512;37.764;2023-05-19T12:14:30;7.45;;;2.30;;
44197;SDS011;30157;55.512;37.764;2023-05-19T12:16:56;6.80;;;2.10;;
44197;SDS011;30157;55.512;37.764;2023-05-19T12:19:22;4.35;;;1.90;;
44197;SDS011;30157;55.512;37.764;2023-05-19T12:21:50;4.28;;;2.03;;
44197;SDS011;30157;55.512;37.764;2023-05-19T12:24:18;4.43;;;2.00;;
44197;SDS011;30157;55.512;37.764;2023-05-19T12:26:44;5.97;;;2.13;;
44197;SDS011;30157;55.512;37.764;2023-05-19T12:29:14;4.78;;;2.35;;
44197;SDS011;30157;55.512;37.764;2023-05-19T12:31:39;3.28;;;1.92;;
44197;SDS011;30157;55.512;37.764;2023-05-19T12:34:05;8.68;;;2.42;;
44197;SDS011;30157;55.512;37.764;2023-05-19T12:36:31;4.57;;;2.30;;
44197;SDS011;30157;55.512;37.764;2023-05-19T12:38:57;5.50;;;2.10;;
44197;SDS011;30157;55.512;37.764;2023-05-19T12:41:23;4.55;;;2.00;;
44197;SDS011;30157;55.512;37.764;2023-05-19T12:43:53;3.97;;;1.92;;
44197;SDS011;30157;55.512;37.764;2023-05-19T12:46:19;8.27;;;2.25;;
44197;SDS011;30157;55.512;37.764;2023-05-19T12:48:46;4.82;;;2.10;;
44197;SDS011;30157;55.512;37.764;2023-05-19T12:51:16;5.47;;;2.33;;
44197;SDS011;30157;55.512;37.764;2023-05-19T12:53:45;4.95;;;2.33;;
44197;SDS011;30157;55.512;37.764;2023-05-19T12:56:12;4.90;;;1.85;;
44197;SDS011;30157;55.512;37.764;2023-05-19T12:58:40;6.80;;;2.03;;
44197;SDS011;30157;55.512;37.764;2023-05-19T13:01:13;8.90;;;2.47;;
44197;SDS011;30157;55.512;37.764;2023-05-19T13:03:40;6.95;;;2.70;;
44197;SDS011;30157;55.512;37.764;2023-05-19T13:06:07;7.97;;;2.35;;
44197;SDS011;30157;55.512;37.764;2023-05-19T13:08:34;7.30;;;2.55;;
44197;SDS011;30157;55.512;37.764;2023-05-19T13:11:01;3.95;;;1.80;;
44197;SDS011;30157;55.512;37.764;2023-05-19T13:13:26;7.13;;;2.75;;
44197;SDS011;30157;55.512;37.764;2023-05-19T13:15:52;6.00;;;2.10;;
44197;SDS011;30157;55.512;37.764;2023-05-19T13:18:18;5.93;;;2.33;;
44197;SDS011;30157;55.512;37.764;2023-05-19T13:20:44;7.45;;;2.80;;
44197;SDS011;30157;55.512;37.764;2023-05-19T13:23:11;7.13;;;2.42;;
44197;SDS011;30157;55.512;37.764;2023-05-19T13:25:39;3.35;;;2.00;;
44197;SDS011;30157;55.512;37.764;2023-05-19T13:28:05;4.55;;;1.60;;
44197;SDS011;30157;55.512;37.764;2023-05-19T13:30:32;5.53;;;1.67;;
44197;SDS011;30157;55.512;37.764;2023-05-19T13:32:59;5.53;;;1.67;;
44197;SDS011;30157;55.512;37.764;2023-05-19T13:35:25;7.50;;;2.67;;
44197;SDS011;30157;55.512;37.764;2023-05-19T13:37:51;4.72;;;2.30;;
44197;SDS011;30157;55.512;37.764;2023-05-19T13:40:17;4.53;;;2.53;;
44197;SDS011;30157;55.512;37.764;2023-05-19T13:42:43;7.47;;;3.00;;
44197;SDS011;30157;55.512;37.764;2023-05-19T13:45:09;5.32;;;1.70;;
44197;SDS011;30157;55.512;37.764;2023-05-19T13:47:37;8.93;;;2.83;;
44197;SDS011;30157;55.512;37.764;2023-05-19T13:50:03;7.10;;;2.10;;
44197;SDS011;30157;55.512;37.764;2023-05-19T13:52:31;3.67;;;1.55;;
44197;SDS011;30157;55.512;37.764;2023-05-19T13:54:58;4.32;;;1.70;;
44197;SDS011;30157;55.512;37.764;2023-05-19T13:57:23;10.57;;;1.60;;
44197;SDS011;30157;55.512;37.764;2023-05-19T13:59:51;3.17;;;1.60;;
44197;SDS011;30157;55.512;37.764;2023-05-19T14:02:18;4.57;;;1.83;;
44197;SDS011;30157;55.512;37.764;2023-05-19T14:04:45;3.53;;;1.95;;
44197;SDS011;30157;55.512;37.764;2023-05-19T14:07:11;4.43;;;1.63;;
44197;SDS011;30157;55.512;37.764;2023-05-19T14:09:37;4.82;;;1.60;;
44197;SDS011;30157;55.512;37.764;2023-05-19T14:12:03;3.50;;;1.60;;
44197;SDS011;30157;55.512;37.764;2023-05-19T14:14:30;4.03;;;1.55;;
44197;SDS011;30157;55.512;37.764;2023-05-19T14:16:56;4.93;;;1.73;;
44197;SDS011;30157;55.512;37.764;2023-05-19T14:19:22;4.82;;;1.92;;
44197;SDS011;30157;55.512;37.764;2023-05-19T14:21:48;5.00;;;1.40;;
44197;SDS011;30157;55.512;37.764;2023-05-19T14:24:15;3.50;;;1.63;;
44197;SDS011;30157;55.512;37.764;2023-05-19T14:26:40;4.10;;;1.55;;
44197;SDS011;30157;55.512;37.764;2023-05-19T14:29:06;4.78;;;1.90;;
44197;SDS011;30157;55.512;37.764;2023-05-19T14:31:33;6.68;;;2.00;;
44197;SDS011;30157;55.512;37.764;2023-05-19T14:33:59;8.15;;;2.15;;
44197;SDS011;30157;55.512;37.764;2023-05-19T14:36:25;6.22;;;2.00;;
44197;SDS011;30157;55.512;37.764;2023-05-19T14:38:51;6.55;;;3.38;;
44197;SDS011;30157;55.512;37.764;2023-05-19T14:41:17;6.05;;;1.88;;
44197;SDS011;30157;55.512;37.764;2023-05-19T14:43:43;3.50;;;1.48;;
44197;SDS011;30157;55.512;37.764;2023-05-19T14:46:09;4.40;;;1.70;;
44197;SDS011;30157;55.512;37.764;2023-05-19T14:48:34;5.50;;;1.83;;
44197;SDS011;30157;55.512;37.764;2023-05-19T14:51:00;4.35;;;1.85;;
44197;SDS011;30157;55.512;37.764;2023-05-19T14:53:26;5.15;;;2.10;;
44197;SDS011;30157;55.512;37.764;2023-05-19T14:55:52;8.55;;;2.70;;
44197;SDS011;30157;55.512;37.764;2023-05-19T14:58:17;7.93;;;2.05;;
44197;SDS011;30157;55.512;37.764;2023-05-19T15:00:43;5.40;;;1.80;;
44197;SDS011;30157;55.512;37.764;2023-05-19T15:03:09;5.07;;;1.60;;
44197;SDS011;30157;55.512;37.764;2023-05-19T15:05:36;3.85;;;1.33;;
44197;SDS011;30157;55.512;37.764;2023-05-19T15:08:05;7.07;;;1.60;;